createdAt,value
2019-03-08T00:01:29.930Z,8.63
2019-03-08T00:03:56.390Z,8.05
2019-03-08T00:06:23.342Z,6.67
2019-03-08T00:08:49.641Z,6.92
2019-03-08T00:11:29.045Z,6.25
2019-03-08T00:14:09.037Z,8.98
2019-03-08T00:16:35.495Z,5.53
2019-03-08T00:19:02.429Z,13.10
2019-03-08T00:21:28.880Z,3.92
2019-03-08T00:23:55.331Z,7.10
2019-03-08T00:26:21.724Z,7.28
2019-03-08T00:28:48.119Z,5.97
2019-03-08T00:31:14.491Z,7.00
2019-03-08T00:34:00.887Z,5.62
2019-03-08T00:36:27.356Z,6.03
2019-03-08T00:38:53.881Z,7.12
2019-03-08T00:41:20.306Z,7.72
2019-03-08T00:43:46.704Z,7.03
2019-03-08T00:46:13.245Z,6.05
2019-03-08T00:48:39.770Z,9.80
2019-03-08T00:51:06.233Z,9.58
2019-03-08T00:53:45.744Z,6.20
2019-03-08T00:56:12.210Z,7.45
2019-03-08T00:58:52.459Z,10.00
2019-03-08T01:01:19.115Z,9.10
2019-03-08T01:03:45.580Z,6.45
2019-03-08T01:06:12.139Z,5.85
2019-03-08T01:08:39.650Z,8.10
2019-03-08T01:11:09.098Z,5.58
2019-03-08T01:13:35.511Z,4.75
2019-03-08T01:16:01.955Z,11.78
2019-03-08T01:18:28.655Z,6.47
2019-03-08T01:20:55.070Z,8.08
2019-03-08T01:23:21.463Z,5.50
2019-03-08T01:25:47.871Z,4.08
2019-03-08T01:28:14.414Z,8.58
2019-03-08T01:30:40.939Z,9.73
2019-03-08T01:33:07.384Z,6.85
2019-03-08T01:35:34.241Z,5.37
2019-03-08T01:38:00.708Z,6.22
2019-03-08T01:40:27.670Z,4.95
2019-03-08T01:42:54.506Z,9.58
2019-03-08T01:45:20.923Z,6.75
2019-03-08T01:47:47.618Z,4.50
2019-03-08T01:50:15.075Z,11.43
2019-03-08T01:52:41.695Z,6.45
2019-03-08T01:55:08.184Z,5.42
2019-03-08T01:57:35.294Z,5.97
2019-03-08T02:00:03.352Z,5.45
2019-03-08T02:02:29.976Z,5.62
2019-03-08T02:04:56.381Z,8.50
2019-03-08T02:07:22.724Z,7.20
2019-03-08T02:09:50.743Z,7.03
2019-03-08T02:12:17.404Z,6.03
2019-03-08T02:14:57.617Z,8.25
2019-03-08T02:17:24.157Z,4.85
2019-03-08T02:19:50.632Z,7.85
2019-03-08T02:22:17.175Z,7.67
2019-03-08T02:24:43.689Z,6.00
2019-03-08T02:27:10.156Z,9.93
2019-03-08T02:29:36.549Z,4.65
2019-03-08T02:32:02.993Z,5.35
2019-03-08T02:34:29.515Z,6.45
2019-03-08T02:36:55.992Z,6.70
2019-03-08T02:39:22.449Z,5.12
2019-03-08T02:41:49.245Z,8.10
2019-03-08T02:44:15.787Z,10.53
2019-03-08T02:46:42.194Z,5.80
2019-03-08T02:49:09.473Z,5.85
2019-03-08T02:51:35.912Z,5.83
2019-03-08T02:54:02.414Z,9.43
2019-03-08T02:56:28.879Z,8.80
2019-03-08T02:58:55.843Z,5.17
2019-03-08T03:01:22.276Z,12.10
2019-03-08T03:03:48.689Z,6.90
2019-03-08T03:06:15.127Z,10.68
2019-03-08T03:08:41.660Z,5.95
2019-03-08T03:11:08.086Z,5.30
2019-03-08T03:13:34.611Z,8.85
2019-03-08T03:16:15.140Z,8.85
2019-03-08T03:18:41.706Z,8.60
2019-03-08T03:21:08.145Z,5.22
2019-03-08T03:23:34.554Z,6.45
2019-03-08T03:26:00.994Z,4.58
2019-03-08T03:28:27.434Z,7.85
2019-03-08T03:30:54.211Z,10.45
2019-03-08T03:33:20.684Z,10.15
2019-03-08T03:35:47.105Z,6.53
2019-03-08T03:38:13.667Z,6.03
2019-03-08T03:40:40.051Z,8.48
2019-03-08T03:43:06.477Z,6.20
2019-03-08T03:45:52.835Z,8.68
2019-03-08T03:48:19.288Z,11.68
2019-03-08T03:50:45.949Z,6.42
2019-03-08T03:53:12.378Z,8.10
2019-03-08T03:55:38.790Z,8.70
2019-03-08T03:58:05.208Z,8.03
2019-03-08T04:00:31.589Z,7.83
2019-03-08T04:03:11.666Z,8.48
2019-03-08T04:05:38.148Z,5.53
2019-03-08T04:08:17.851Z,7.17
2019-03-08T04:10:44.311Z,8.38
2019-03-08T04:13:11.108Z,6.72
2019-03-08T04:15:37.722Z,4.58
2019-03-08T04:18:04.153Z,7.87
2019-03-08T04:20:30.693Z,7.15
2019-03-08T04:23:16.962Z,7.55
2019-03-08T04:25:43.606Z,8.45
2019-03-08T04:28:11.206Z,6.75
2019-03-08T04:30:37.620Z,7.17
2019-03-08T04:33:04.079Z,8.98
2019-03-08T04:35:30.593Z,9.35
2019-03-08T04:37:57.146Z,7.03
2019-03-08T04:40:23.543Z,13.13
2019-03-08T04:42:50.066Z,10.63
2019-03-08T04:45:16.409Z,10.48
2019-03-08T04:47:42.914Z,9.48
2019-03-08T04:50:11.970Z,12.80
2019-03-08T04:52:38.441Z,10.53
2019-03-08T04:55:16.762Z,11.33
2019-03-08T04:57:43.219Z,16.80
2019-03-08T05:00:12.765Z,9.18
2019-03-08T05:02:40.579Z,15.65
2019-03-08T05:05:07.040Z,13.88
2019-03-08T05:07:46.995Z,10.78
2019-03-08T05:10:14.934Z,14.80
2019-03-08T05:12:41.470Z,12.55
2019-03-08T05:15:29.636Z,14.03
2019-03-08T05:17:56.088Z,14.35
2019-03-08T05:20:22.511Z,15.30
2019-03-08T05:22:49.088Z,16.77
2019-03-08T05:25:16.187Z,15.25
2019-03-08T05:27:42.697Z,22.27
2019-03-08T05:30:14.768Z,16.20
2019-03-08T05:32:41.197Z,20.15
2019-03-08T05:35:08.858Z,15.78
2019-03-08T05:37:35.435Z,14.68
2019-03-08T05:40:03.705Z,17.57
2019-03-08T05:42:30.297Z,15.20
2019-03-08T05:44:56.815Z,14.50
2019-03-08T05:47:23.283Z,19.37
2019-03-08T05:49:50.075Z,18.65
2019-03-08T05:52:16.499Z,16.00
2019-03-08T05:54:43.350Z,19.60
2019-03-08T05:57:09.900Z,18.70
2019-03-08T05:59:36.561Z,19.62
2019-03-08T06:02:03.347Z,14.20
2019-03-08T06:04:29.765Z,15.30
2019-03-08T06:06:56.343Z,14.70
2019-03-08T06:09:42.749Z,18.60
2019-03-08T06:12:22.743Z,18.70
2019-03-08T06:15:02.819Z,17.87
2019-03-08T06:17:29.376Z,18.98
2019-03-08T06:20:15.668Z,15.45
2019-03-08T06:22:42.098Z,19.23
2019-03-08T06:25:08.515Z,16.55
2019-03-08T06:27:34.984Z,17.35
2019-03-08T06:30:01.419Z,13.10
2019-03-08T06:32:27.935Z,22.05
2019-03-08T06:34:54.555Z,20.92
2019-03-08T06:37:41.009Z,18.57
2019-03-08T06:40:12.387Z,22.17
2019-03-08T06:42:38.777Z,14.03
2019-03-08T06:45:11.861Z,16.35
2019-03-08T06:47:38.314Z,14.53
2019-03-08T06:50:08.085Z,16.87
2019-03-08T06:52:34.517Z,18.70
2019-03-08T06:55:02.740Z,15.83
2019-03-08T06:57:30.483Z,17.57
2019-03-08T06:59:58.807Z,19.10
2019-03-08T07:02:25.314Z,15.50
2019-03-08T07:04:53.430Z,18.50
2019-03-08T07:07:20.426Z,15.25
2019-03-08T07:09:46.911Z,15.85
2019-03-08T07:12:13.445Z,20.05
2019-03-08T07:14:39.993Z,27.62
2019-03-08T07:17:06.411Z,16.15
2019-03-08T07:19:40.738Z,14.85
2019-03-08T07:22:05.119Z,16.85
2019-03-08T07:24:33.435Z,12.75
2019-03-08T07:27:13.880Z,15.98
2019-03-08T07:29:46.090Z,17.15
2019-03-08T07:32:29.612Z,15.53
2019-03-08T07:35:14.724Z,28.75
2019-03-08T07:37:46.226Z,18.52
2019-03-08T07:40:23.681Z,20.62
2019-03-08T07:42:58.082Z,15.43
2019-03-08T07:45:38.641Z,19.45
2019-03-08T07:48:12.911Z,16.23
2019-03-08T07:50:47.782Z,20.48
2019-03-08T07:53:31.161Z,15.28
2019-03-08T07:55:59.632Z,13.43
2019-03-08T07:58:44.846Z,13.08
2019-03-08T08:01:13.183Z,15.95
2019-03-08T08:03:41.623Z,14.18
2019-03-08T08:06:33.508Z,17.98
2019-03-08T08:11:59.273Z,13.83
2019-03-08T08:14:39.187Z,18.95
2019-03-08T08:17:03.368Z,20.00
2019-03-08T08:19:34.693Z,20.12
2019-03-08T08:22:03.115Z,17.50
2019-03-08T08:24:40.749Z,21.77
2019-03-08T08:27:09.071Z,17.87
2019-03-08T08:29:47.488Z,21.02
2019-03-08T08:32:35.353Z,21.65
2019-03-08T08:35:10.195Z,26.27
2019-03-08T08:40:10.853Z,21.62
2019-03-08T08:43:04.195Z,20.65
2019-03-08T08:45:48.885Z,17.77
2019-03-08T08:48:17.233Z,16.57
2019-03-08T08:50:51.550Z,19.30
2019-03-08T08:53:32.111Z,19.45
2019-03-08T08:56:13.823Z,23.20
2019-03-08T08:58:57.265Z,23.22
2019-03-08T09:01:25.579Z,24.05
2019-03-08T09:04:05.988Z,20.52
2019-03-08T09:06:40.355Z,24.72
2019-03-08T09:09:08.812Z,22.15
2019-03-08T09:11:47.165Z,24.87
2019-03-08T09:14:14.008Z,26.65
2019-03-08T09:16:58.993Z,31.57
2019-03-08T09:19:27.346Z,27.80
2019-03-08T09:21:55.786Z,29.12
2019-03-08T09:24:30.831Z,28.70
2019-03-08T09:27:04.962Z,34.78
2019-03-08T09:29:49.306Z,27.22
2019-03-08T09:32:34.558Z,29.80
2019-03-08T09:35:02.927Z,32.83
2019-03-08T09:37:51.089Z,29.85
2019-03-08T09:40:19.665Z,31.02
2019-03-08T09:42:48.092Z,29.98
2019-03-08T09:45:31.709Z,29.42
2019-03-08T09:48:28.962Z,28.45
2019-03-08T09:51:09.567Z,35.33
2019-03-08T09:53:37.976Z,32.08
2019-03-08T09:56:19.525Z,33.18
2019-03-08T09:58:54.102Z,32.20
2019-03-08T10:01:37.824Z,26.02
2019-03-08T10:04:17.953Z,27.32
2019-03-08T10:06:49.085Z,28.62
2019-03-08T10:09:18.486Z,29.87
2019-03-08T10:11:56.028Z,20.97
2019-03-08T10:14:25.307Z,26.55
2019-03-08T10:16:54.130Z,32.05
2019-03-08T10:19:28.497Z,26.05
2019-03-08T10:21:56.842Z,27.32
2019-03-08T10:24:25.291Z,26.20
2019-03-08T10:26:59.650Z,26.20
2019-03-08T10:29:28.068Z,30.17
2019-03-08T10:31:56.517Z,26.42
2019-03-08T10:34:27.795Z,21.60
2019-03-08T10:37:08.065Z,22.93
2019-03-08T10:39:36.410Z,20.62
2019-03-08T10:42:11.197Z,29.15
2019-03-08T10:44:56.498Z,27.25
2019-03-08T10:50:15.131Z,23.27
2019-03-08T10:52:46.726Z,19.67
2019-03-08T10:55:24.304Z,23.27
2019-03-08T10:57:59.074Z,29.18
2019-03-08T11:00:27.519Z,27.65
2019-03-08T11:06:05.165Z,28.73
2019-03-08T11:08:50.391Z,25.72
2019-03-08T11:11:18.835Z,28.27
2019-03-08T11:13:53.221Z,30.77
2019-03-08T11:16:38.416Z,23.95
2019-03-08T11:32:54.253Z,26.48
2019-03-08T11:35:31.507Z,30.00
2019-03-08T11:38:18.154Z,20.40
2019-03-08T11:40:55.722Z,23.70
2019-03-08T11:43:26.800Z,23.07
2019-03-08T11:46:10.139Z,19.80
2019-03-08T11:48:47.061Z,19.23
2019-03-08T11:51:21.631Z,21.55
2019-03-08T11:53:56.583Z,22.80
2019-03-08T11:56:35.045Z,19.07
2019-03-08T11:59:23.124Z,21.00
2019-03-08T12:01:51.462Z,20.00
2019-03-08T12:04:20.065Z,22.32
2019-03-08T12:06:51.554Z,24.52
2019-03-08T12:09:19.859Z,21.05
2019-03-08T12:11:57.275Z,15.58
2019-03-08T12:14:34.689Z,18.52
2019-03-08T12:17:02.964Z,22.42
2019-03-08T12:19:37.203Z,17.92
2019-03-08T12:22:22.369Z,18.65
2019-03-08T12:27:35.575Z,16.25
2019-03-08T12:30:15.992Z,18.77
2019-03-08T12:32:50.415Z,18.60
2019-03-08T12:35:18.736Z,14.20
2019-03-08T12:37:56.083Z,13.95
2019-03-08T12:40:24.370Z,16.45
2019-03-08T12:43:07.564Z,13.05
2019-03-08T12:45:47.234Z,18.95
2019-03-08T12:48:23.728Z,16.15
2019-03-08T12:50:54.675Z,13.88
2019-03-08T12:53:40.523Z,15.50
2019-03-08T12:56:08.837Z,14.50
2019-03-08T12:58:43.115Z,15.80
2019-03-08T13:01:28.067Z,18.75
2019-03-08T13:03:59.534Z,16.75
2019-03-08T13:06:45.994Z,20.75
2019-03-08T13:09:31.173Z,23.65
2019-03-08T13:11:57.684Z,15.08
2019-03-08T13:14:24.222Z,16.12
2019-03-08T13:17:01.358Z,15.08
2019-03-08T13:19:27.943Z,18.95
2019-03-08T13:21:54.636Z,19.73
2019-03-08T13:24:21.199Z,14.15
2019-03-08T13:26:47.604Z,15.03
2019-03-08T13:29:14.627Z,11.65
2019-03-08T13:31:41.348Z,16.48
2019-03-08T13:34:07.913Z,14.00
2019-03-08T13:36:34.301Z,12.23
2019-03-08T13:39:00.834Z,13.65
2019-03-08T13:41:27.542Z,18.82
2019-03-08T13:43:53.980Z,14.70
2019-03-08T13:46:20.412Z,12.78
2019-03-08T13:48:46.947Z,14.18
2019-03-08T13:51:13.481Z,14.45
2019-03-08T13:53:40.024Z,13.28
2019-03-08T13:56:06.526Z,13.90
2019-03-08T13:58:32.973Z,11.95
2019-03-08T14:00:59.278Z,9.90
2019-03-08T14:03:25.685Z,10.43
2019-03-08T14:05:52.159Z,10.95
2019-03-08T14:08:18.517Z,9.05
2019-03-08T14:10:44.955Z,12.53
2019-03-08T14:13:11.412Z,9.90
2019-03-08T14:15:38.054Z,8.20
2019-03-08T14:18:04.638Z,8.93
2019-03-08T14:20:31.078Z,6.72
2019-03-08T14:22:57.947Z,11.25
2019-03-08T14:25:24.428Z,6.17
2019-03-08T14:27:50.981Z,10.00
2019-03-08T14:30:21.017Z,9.50
2019-03-08T14:32:47.579Z,8.73
2019-03-08T14:35:14.052Z,8.73
2019-03-08T14:37:40.525Z,9.15
2019-03-08T14:40:12.382Z,8.83
2019-03-08T14:42:41.623Z,7.12
2019-03-08T14:45:11.583Z,8.78
2019-03-08T14:47:38.340Z,8.45
2019-03-08T14:50:24.795Z,9.50
2019-03-08T14:52:55.158Z,9.38
2019-03-08T14:55:22.623Z,11.22
2019-03-08T14:57:47.849Z,6.83
2019-03-08T15:00:19.029Z,8.58
2019-03-08T15:02:47.039Z,10.95
2019-03-08T15:05:15.443Z,8.25
2019-03-08T15:07:43.244Z,7.50
2019-03-08T15:10:15.239Z,12.13
2019-03-08T15:12:49.115Z,8.48
2019-03-08T15:15:11.792Z,14.78
2019-03-08T15:17:39.765Z,12.25
2019-03-08T15:20:15.198Z,13.38
2019-03-08T15:22:40.198Z,11.67
2019-03-08T15:25:12.554Z,9.00
2019-03-08T15:27:38.487Z,10.65
2019-03-08T15:30:09.426Z,10.00
2019-03-08T15:32:36.200Z,8.35
2019-03-08T15:35:04.923Z,10.78
2019-03-08T15:37:31.699Z,8.90
2019-03-08T15:40:11.492Z,10.80
2019-03-08T15:42:38.200Z,11.12
2019-03-08T15:45:07.380Z,11.35
2019-03-08T15:47:36.274Z,9.45
2019-03-08T15:50:04.660Z,11.45
2019-03-08T15:52:31.346Z,9.13
2019-03-08T15:54:57.641Z,9.50
2019-03-08T15:57:23.965Z,7.97
2019-03-08T15:59:50.281Z,10.78
2019-03-08T16:02:16.744Z,8.70
2019-03-08T16:04:45.908Z,11.68
2019-03-08T16:07:11.891Z,9.98
2019-03-08T16:09:38.559Z,12.68
2019-03-08T16:12:04.930Z,12.25
2019-03-08T16:14:31.323Z,12.55
2019-03-08T16:16:57.869Z,9.05
2019-03-08T16:19:24.712Z,13.05
2019-03-08T16:21:52.578Z,9.60
2019-03-08T16:24:19.009Z,7.90
2019-03-08T16:26:45.428Z,11.10
2019-03-08T16:29:11.987Z,9.98
2019-03-08T16:31:40.705Z,15.90
2019-03-08T16:34:09.176Z,12.98
2019-03-08T16:36:46.587Z,14.58
2019-03-08T16:39:15.331Z,9.93
2019-03-08T16:41:46.976Z,8.88
2019-03-08T16:44:28.267Z,10.15
2019-03-08T16:47:02.606Z,10.25
2019-03-08T16:49:31.013Z,8.98
2019-03-08T16:52:05.591Z,9.30
2019-03-08T16:54:42.965Z,12.23
2019-03-08T16:57:17.207Z,10.30
2019-03-08T16:59:45.657Z,12.20
2019-03-08T17:02:17.337Z,10.40
2019-03-08T17:04:45.649Z,13.50
2019-03-08T17:07:28.984Z,11.57
2019-03-08T17:10:14.094Z,14.18
2019-03-08T17:12:52.479Z,10.38
2019-03-08T17:15:25.037Z,12.98
2019-03-08T17:18:07.533Z,12.80
2019-03-08T17:20:39.050Z,9.88
2019-03-08T17:23:17.083Z,13.25
2019-03-08T17:25:55.906Z,11.20
2019-03-08T17:28:32.043Z,12.65
2019-03-08T17:31:01.135Z,16.42
2019-03-08T17:33:41.824Z,13.48
2019-03-08T17:36:10.296Z,13.62
2019-03-08T17:38:54.992Z,9.65
2019-03-08T17:41:32.480Z,11.73
2019-03-08T17:44:01.046Z,12.20
2019-03-08T17:46:29.403Z,16.05
2019-03-08T17:49:02.644Z,18.32
2019-03-08T17:51:33.794Z,17.67
2019-03-08T17:54:11.241Z,12.47
2019-03-08T17:56:57.925Z,13.35
2019-03-08T17:59:26.194Z,10.85
2019-03-08T18:01:54.625Z,12.55
2019-03-08T18:04:40.993Z,13.43
2019-03-08T18:07:12.034Z,10.72
2019-03-08T18:09:41.733Z,12.82
2019-03-08T18:12:16.193Z,14.33
2019-03-08T18:14:53.949Z,14.87
2019-03-08T18:17:34.675Z,16.25
2019-03-08T18:20:03.169Z,14.95
2019-03-08T18:22:39.015Z,14.20
2019-03-08T18:25:07.726Z,20.08
2019-03-08T18:27:36.314Z,19.07
2019-03-08T18:30:14.840Z,19.27
2019-03-08T18:32:52.308Z,21.62
2019-03-08T18:35:39.229Z,18.67
2019-03-08T18:38:24.213Z,18.65
2019-03-08T18:40:52.748Z,18.32
2019-03-08T18:43:31.874Z,18.62
2019-03-08T18:46:00.258Z,30.90
2019-03-08T18:48:28.949Z,22.65
2019-03-08T18:51:15.528Z,17.02
2019-03-08T18:53:44.110Z,17.07
2019-03-08T18:56:18.253Z,12.33
2019-03-08T18:58:52.841Z,15.88
2019-03-08T19:01:27.451Z,13.22
2019-03-08T19:04:05.213Z,14.20
2019-03-08T19:06:34.623Z,17.07
2019-03-08T19:09:05.884Z,18.48
2019-03-08T19:11:36.734Z,17.07
2019-03-08T19:14:08.216Z,19.48
2019-03-08T19:16:54.214Z,13.90
2019-03-08T19:19:39.331Z,13.20
2019-03-08T19:22:25.934Z,15.75
2019-03-08T19:24:47.352Z,17.55
2019-03-08T19:27:32.667Z,19.48
2019-03-08T19:30:04.223Z,20.00
2019-03-08T19:32:42.031Z,15.93
2019-03-08T19:35:13.461Z,15.25
2019-03-08T19:37:51.106Z,22.22
2019-03-08T19:40:37.629Z,16.93
2019-03-08T19:43:24.812Z,18.05
2019-03-08T19:45:59.554Z,17.02
2019-03-08T19:48:28.306Z,18.55
2019-03-08T19:51:02.854Z,14.15
2019-03-08T19:53:49.823Z,19.98
2019-03-08T19:58:55.991Z,18.85
2019-03-08T20:01:27.949Z,18.27
2019-03-08T20:03:56.683Z,15.95
2019-03-08T20:06:31.820Z,15.85
2019-03-08T20:09:11.278Z,17.10
2019-03-08T20:11:52.940Z,16.37
2019-03-08T20:14:27.618Z,17.57
2019-03-08T20:17:09.149Z,16.77
2019-03-08T20:19:56.191Z,21.15
2019-03-08T20:22:41.530Z,16.75
2019-03-08T20:25:10.602Z,18.02
2019-03-08T20:27:54.339Z,18.30
2019-03-08T20:30:39.552Z,16.57
2019-03-08T20:35:48.186Z,19.05
2019-03-08T20:38:25.764Z,21.10
2019-03-08T20:43:55.221Z,16.93
2019-03-08T20:46:24.031Z,16.10
2019-03-08T20:48:50.741Z,28.60
2019-03-08T20:51:17.162Z,16.82
2019-03-08T20:53:43.925Z,16.75
2019-03-08T20:56:10.525Z,21.35
2019-03-08T20:58:37.076Z,16.07
2019-03-08T21:01:03.600Z,19.17
2019-03-08T21:03:30.358Z,21.15
2019-03-08T21:05:57.524Z,20.15
2019-03-08T21:08:24.191Z,16.20
2019-03-08T21:10:50.881Z,19.70
2019-03-08T21:13:17.611Z,21.05
2019-03-08T21:15:44.812Z,20.72
2019-03-08T21:18:12.588Z,20.55
2019-03-08T21:20:39.638Z,32.53
2019-03-08T21:23:06.098Z,28.12
2019-03-08T21:25:32.639Z,33.08
2019-03-08T21:27:59.294Z,18.60
2019-03-08T21:30:26.969Z,19.00
2019-03-08T21:32:53.586Z,20.70
2019-03-08T21:35:20.054Z,20.08
2019-03-08T21:37:46.641Z,19.95
2019-03-08T21:40:13.481Z,18.42
2019-03-08T21:42:40.004Z,18.62
2019-03-08T21:45:09.751Z,17.82
2019-03-08T21:47:36.353Z,14.95
2019-03-08T21:50:05.693Z,19.52
2019-03-08T21:52:32.903Z,16.77
2019-03-08T21:54:59.464Z,16.80
2019-03-08T21:57:27.004Z,18.23
2019-03-08T21:59:53.774Z,19.30
2019-03-08T22:02:21.261Z,22.27
2019-03-08T22:04:54.456Z,22.02
2019-03-08T22:07:20.937Z,17.73
2019-03-08T22:09:49.328Z,19.57
2019-03-08T22:12:15.726Z,23.20
2019-03-08T22:14:42.340Z,18.52
2019-03-08T22:17:08.778Z,17.02
2019-03-08T22:19:35.259Z,18.25
2019-03-08T22:22:01.740Z,17.98
2019-03-08T22:24:29.642Z,19.00
2019-03-08T22:26:56.284Z,15.68
2019-03-08T22:29:22.735Z,17.05
2019-03-08T22:31:49.169Z,16.40
2019-03-08T22:34:15.633Z,19.92
2019-03-08T22:36:42.639Z,16.17
2019-03-08T22:39:09.063Z,16.65
2019-03-08T22:41:36.352Z,20.68
2019-03-08T22:44:02.797Z,15.38
2019-03-08T22:46:45.131Z,18.42
2019-03-08T22:49:08.275Z,16.97
2019-03-08T22:51:34.731Z,18.67
2019-03-08T22:54:01.233Z,16.48
2019-03-08T22:56:27.779Z,24.45
2019-03-08T22:58:54.457Z,22.90
2019-03-08T23:01:20.800Z,17.57
2019-03-08T23:03:49.153Z,21.57
2019-03-08T23:06:15.492Z,20.17
2019-03-08T23:08:42.845Z,18.40
2019-03-08T23:11:09.400Z,13.90
2019-03-08T23:13:35.814Z,20.68
2019-03-08T23:16:02.163Z,19.70
2019-03-08T23:18:28.590Z,19.17
2019-03-08T23:20:55.466Z,24.85
2019-03-08T23:23:21.924Z,20.60
2019-03-08T23:25:48.506Z,26.50
2019-03-08T23:28:16.938Z,20.23
2019-03-08T23:30:46.375Z,20.82
2019-03-08T23:33:12.784Z,21.60
2019-03-08T23:35:39.642Z,22.50
2019-03-08T23:38:06.058Z,22.42
2019-03-08T23:40:32.498Z,19.23
2019-03-08T23:42:58.911Z,20.88
2019-03-08T23:45:25.450Z,18.50
2019-03-08T23:47:51.976Z,18.00
2019-03-08T23:50:18.517Z,21.82
2019-03-08T23:52:44.845Z,23.83
2019-03-08T23:55:11.282Z,24.18
2019-03-08T23:57:37.659Z,20.85
